Time;durP1;ratioP1;P1;durP2;ratioP2;P2;SDS_P1;SDS_P2;PMS_P1;PMS_P2;Temp;Humidity;BMP_temperature;BMP_pressure;BME280_temperature;BME280_humidity;BME280_pressure;Samples;Min_cycle;Max_cycle;Signal;HPM_P1;HPM_P2
2021/12/31 00:00:46;;;;;;;4.35;1.70;;;10.60;99.90;;;;;;5084000;28;20850;-59
2021/12/31 00:03:26;;;;;;;2.10;1.70;;;10.60;99.90;;;;;;5082186;28;20905;-57
2021/12/31 00:06:06;;;;;;;2.72;2.53;;;10.60;99.90;;;;;;5083992;28;20539;-57
2021/12/31 00:08:45;;;;;;;2.83;2.63;;;10.60;99.90;;;;;;5059243;28;20697;-57
2021/12/31 00:11:25;;;;;;;3.17;2.65;;;10.60;99.90;;;;;;5080597;28;20667;-59
2021/12/31 00:14:05;;;;;;;3.25;2.95;;;10.60;99.90;;;;;;5076504;28;20705;-60
2021/12/31 00:16:45;;;;;;;3.47;3.17;;;10.60;99.90;;;;;;5072317;27;20532;-58
2021/12/31 00:19:26;;;;;;;3.53;3.22;;;10.70;99.90;;;;;;5076765;27;20587;-59
2021/12/31 00:22:26;;;;;;;3.00;2.53;;;10.70;99.90;;;;;;5084733;28;20672;-57
2021/12/31 00:25:06;;;;;;;4.07;3.45;;;10.70;99.90;;;;;;5068317;28;20560;-58
2021/12/31 00:27:45;;;;;;;4.38;4.03;;;10.70;99.90;;;;;;5084369;28;20668;-58
2021/12/31 00:30:25;;;;;;;3.15;2.88;;;10.60;99.90;;;;;;5105155;27;20685;-57
2021/12/31 00:33:07;;;;;;;4.35;4.05;;;10.70;99.90;;;;;;5084972;28;20663;-57
2021/12/31 00:35:46;;;;;;;3.13;2.85;;;10.70;99.90;;;;;;5075161;27;20573;-58
2021/12/31 00:38:26;;;;;;;3.67;3.40;;;10.70;99.90;;;;;;5103731;27;20666;-57
2021/12/31 00:41:05;;;;;;;4.50;4.13;;;10.70;99.90;;;;;;5103944;27;20538;-58
2021/12/31 00:43:45;;;;;;;4.47;4.07;;;10.60;99.90;;;;;;5101446;27;21234;-59
2021/12/31 00:46:26;;;;;;;3.53;3.33;;;10.60;99.90;;;;;;5103916;27;20587;-60
2021/12/31 00:49:06;;;;;;;4.88;2.55;;;10.60;99.90;;;;;;5103468;27;20662;-57
2021/12/31 00:51:46;;;;;;;2.38;2.13;;;10.60;99.90;;;;;;5145911;27;20547;-57
2021/12/31 00:54:26;;;;;;;2.60;2.40;;;10.60;99.90;;;;;;5079617;27;21052;-58
2021/12/31 00:57:07;;;;;;;2.72;2.53;;;10.50;99.90;;;;;;5061371;27;20577;-58
2021/12/31 00:59:46;;;;;;;2.67;2.47;;;10.50;99.90;;;;;;5100101;27;20689;-59
2021/12/31 01:02:28;;;;;;;3.38;3.17;;;10.40;99.90;;;;;;5084716;27;20540;-58
2021/12/31 01:05:08;;;;;;;4.75;2.15;;;10.40;99.90;;;;;;5082944;28;20555;-57
2021/12/31 01:07:47;;;;;;;2.72;1.80;;;10.40;99.90;;;;;;5084382;28;20680;-57
2021/12/31 01:10:28;;;;;;;4.22;2.75;;;10.40;99.90;;;;;;5145826;27;20530;-58
2021/12/31 01:13:16;;;;;;;2.92;2.72;;;10.40;99.90;;;;;;5125507;27;20544;-59
2021/12/31 01:15:59;;;;;;;3.28;2.97;;;10.40;99.90;;;;;;5136810;27;21055;-58
2021/12/31 01:21:31;;;;;;;2.88;2.67;;;10.40;99.90;;;;;;5084107;27;20624;-57
2021/12/31 01:24:11;;;;;;;3.63;2.53;;;10.40;99.90;;;;;;5084184;28;20680;-58
2021/12/31 01:26:51;;;;;;;1.73;1.63;;;10.40;99.90;;;;;;5083256;27;20532;-58
2021/12/31 01:29:31;;;;;;;2.35;2.13;;;10.40;99.90;;;;;;5104420;27;21210;-56
2021/12/31 01:32:11;;;;;;;2.97;1.98;;;10.40;99.90;;;;;;5106065;27;20545;-57
2021/12/31 01:34:51;;;;;;;3.65;3.00;;;10.40;99.90;;;;;;5100302;27;20698;-60
2021/12/31 01:37:31;;;;;;;4.72;2.90;;;10.50;99.90;;;;;;5103905;27;20562;-57
2021/12/31 01:40:11;;;;;;;2.50;2.30;;;10.40;99.90;;;;;;5083363;28;20691;-58
2021/12/31 01:42:52;;;;;;;2.28;1.70;;;10.40;99.90;;;;;;5105113;27;20576;-60
2021/12/31 01:45:34;;;;;;;3.30;2.42;;;10.40;99.90;;;;;;5076340;28;20622;-57
2021/12/31 01:48:24;;;;;;;4.65;2.72;;;10.40;99.90;;;;;;5083912;28;20671;-58
2021/12/31 01:51:03;;;;;;;4.82;2.33;;;10.30;99.90;;;;;;5084400;27;20547;-57
2021/12/31 01:53:42;;;;;;;2.20;1.95;;;10.40;99.90;;;;;;5084490;28;20703;-58
2021/12/31 01:56:24;;;;;;;2.25;1.73;;;10.30;99.90;;;;;;5083883;27;21023;-57
2021/12/31 01:59:05;;;;;;;2.03;1.92;;;10.40;99.90;;;;;;5145800;27;20668;-60
2021/12/31 02:01:46;;;;;;;1.80;1.70;;;10.40;99.90;;;;;;5076641;28;20678;-57
2021/12/31 02:04:28;;;;;;;1.92;1.83;;;10.40;99.90;;;;;;5075534;27;20598;-57
2021/12/31 02:07:09;;;;;;;3.50;2.03;;;10.50;99.90;;;;;;5088304;27;20666;-60
2021/12/31 02:09:51;;;;;;;3.17;1.85;;;10.60;99.90;;;;;;5103924;27;20538;-57
2021/12/31 02:12:31;;;;;;;2.42;2.25;;;10.60;99.90;;;;;;5084226;27;20547;-57
2021/12/31 02:15:11;;;;;;;2.58;2.28;;;10.60;99.90;;;;;;5076138;28;20698;-58
2021/12/31 02:17:50;;;;;;;2.05;1.95;;;10.60;99.90;;;;;;5141844;27;20677;-57
2021/12/31 02:20:40;;;;;;;2.33;2.22;;;10.50;99.90;;;;;;5083696;28;21060;-58
2021/12/31 02:23:23;;;;;;;2.15;1.95;;;10.60;99.90;;;;;;5082891;27;20676;-57
2021/12/31 02:26:03;;;;;;;4.05;2.50;;;10.50;99.90;;;;;;5099509;27;20713;-59
2021/12/31 02:28:43;;;;;;;2.50;2.13;;;10.60;99.90;;;;;;5140000;27;20542;-57
2021/12/31 02:31:22;;;;;;;3.00;2.80;;;10.60;99.90;;;;;;5104255;27;20705;-57
2021/12/31 02:34:02;;;;;;;2.72;2.50;;;10.60;99.90;;;;;;5084348;28;21180;-58
2021/12/31 02:36:42;;;;;;;2.40;2.20;;;10.50;99.90;;;;;;5084426;27;20535;-57
2021/12/31 02:39:22;;;;;;;3.53;3.22;;;10.60;99.90;;;;;;5083868;27;20609;-58
2021/12/31 02:42:02;;;;;;;3.88;3.10;;;10.60;99.90;;;;;;5084383;28;20663;-57
2021/12/31 02:44:42;;;;;;;2.50;2.30;;;10.60;99.90;;;;;;5099083;27;20710;-57
2021/12/31 02:47:21;;;;;;;4.05;2.50;;;10.60;99.90;;;;;;5104629;27;20905;-60
2021/12/31 02:50:04;;;;;;;2.85;2.33;;;10.60;99.90;;;;;;5120294;27;20555;-57
2021/12/31 02:52:43;;;;;;;2.72;2.22;;;10.70;99.90;;;;;;5083851;28;20692;-59
2021/12/31 02:55:24;;;;;;;2.00;1.90;;;10.70;99.90;;;;;;5086801;27;20583;-58
2021/12/31 02:58:05;;;;;;;2.10;1.90;;;10.70;99.90;;;;;;5083922;27;20667;-58
2021/12/31 03:00:45;;;;;;;1.95;1.85;;;10.70;99.90;;;;;;5096150;27;20670;-59
2021/12/31 03:03:26;;;;;;;1.55;1.45;;;10.70;99.90;;;;;;5102737;27;20578;-59
2021/12/31 03:06:05;;;;;;;2.55;2.35;;;10.70;99.90;;;;;;5104177;27;21167;-57
2021/12/31 03:08:48;;;;;;;1.95;1.85;;;10.70;99.90;;;;;;5084688;28;20664;-57
2021/12/31 03:11:29;;;;;;;2.47;1.67;;;10.70;99.90;;;;;;5085227;27;20896;-59
2021/12/31 03:14:10;;;;;;;2.55;1.70;;;10.70;99.90;;;;;;5080012;28;20580;-58
2021/12/31 03:16:50;;;;;;;1.52;1.33;;;10.70;99.90;;;;;;5083865;27;20544;-57
2021/12/31 03:19:29;;;;;;;2.38;1.80;;;10.70;99.90;;;;;;5083283;28;20675;-59
2021/12/31 03:22:09;;;;;;;2.30;2.10;;;10.70;99.90;;;;;;5083641;28;20557;-57
2021/12/31 03:24:48;;;;;;;2.10;1.90;;;10.70;99.90;;;;;;5098751;27;21045;-57
2021/12/31 03:27:28;;;;;;;2.22;1.80;;;10.60;99.90;;;;;;5146280;27;20673;-59
2021/12/31 03:30:11;;;;;;;2.47;1.85;;;10.60;99.90;;;;;;5102130;27;20653;-58
2021/12/31 03:32:49;;;;;;;2.70;1.58;;;10.60;99.90;;;;;;5084665;28;20547;-57
2021/12/31 03:35:29;;;;;;;3.00;1.95;;;10.60;99.90;;;;;;5079694;27;21123;-58
2021/12/31 03:38:10;;;;;;;2.15;1.95;;;10.60;99.90;;;;;;5124840;27;20679;-60
2021/12/31 03:40:50;;;;;;;1.73;1.63;;;10.60;99.90;;;;;;5077050;27;20583;-57
2021/12/31 03:43:29;;;;;;;3.47;1.35;;;10.50;99.90;;;;;;5145406;27;20977;-58
2021/12/31 03:46:10;;;;;;;3.30;1.77;;;10.50;99.90;;;;;;5103125;27;21027;-58
2021/12/31 03:48:50;;;;;;;1.80;1.70;;;10.60;99.90;;;;;;5140307;27;20657;-58
2021/12/31 03:51:30;;;;;;;3.28;1.90;;;10.60;99.90;;;;;;5079795;27;20556;-57
2021/12/31 03:54:10;;;;;;;3.85;1.55;;;10.50;99.90;;;;;;5138429;27;21087;-57
2021/12/31 03:56:50;;;;;;;1.63;1.35;;;10.60;99.90;;;;;;5133322;27;20949;-56
2021/12/31 03:59:29;;;;;;;2.30;1.88;;;10.60;99.90;;;;;;5079258;27;21165;-59
2021/12/31 04:02:09;;;;;;;2.30;1.83;;;10.60;99.90;;;;;;5103852;27;20665;-60
2021/12/31 04:04:49;;;;;;;2.50;2.30;;;10.50;99.90;;;;;;5078283;28;20741;-59
2021/12/31 04:07:29;;;;;;;2.30;2.10;;;10.50;99.90;;;;;;5139619;27;21914;-58
2021/12/31 04:10:09;;;;;;;2.95;1.60;;;10.50;99.90;;;;;;5148566;27;21285;-57
2021/12/31 04:12:49;;;;;;;3.95;1.90;;;10.50;99.90;;;;;;5083538;28;20551;-57
2021/12/31 04:15:28;;;;;;;2.22;2.08;;;10.50;99.90;;;;;;5065869;27;20603;-57
2021/12/31 04:18:08;;;;;;;3.97;2.20;;;10.50;99.90;;;;;;5118693;27;20546;-58
2021/12/31 04:20:49;;;;;;;2.35;1.92;;;10.50;99.90;;;;;;5084365;27;20699;-60
2021/12/31 04:23:31;;;;;;;2.75;2.55;;;10.50;99.90;;;;;;5078809;28;21224;-57
2021/12/31 04:26:11;;;;;;;2.20;2.00;;;10.40;99.90;;;;;;5083133;27;21031;-57
2021/12/31 04:28:51;;;;;;;2.53;2.33;;;10.40;99.90;;;;;;5081670;28;20570;-58
2021/12/31 04:31:31;;;;;;;2.60;2.40;;;10.40;99.90;;;;;;5104851;27;20554;-59
2021/12/31 04:34:10;;;;;;;2.88;2.33;;;10.40;99.90;;;;;;5101493;27;20575;-60
2021/12/31 04:36:50;;;;;;;2.60;2.08;;;10.30;99.90;;;;;;5072838;27;20860;-57
2021/12/31 04:39:31;;;;;;;2.42;2.22;;;10.30;99.90;;;;;;5120837;27;20620;-59
2021/12/31 04:42:10;;;;;;;3.28;2.13;;;10.30;99.90;;;;;;5084115;28;20548;-58
2021/12/31 04:44:50;;;;;;;3.40;2.08;;;10.30;99.90;;;;;;5066794;28;20698;-58
2021/12/31 04:47:30;;;;;;;3.50;2.45;;;10.20;99.90;;;;;;5104768;27;20588;-57
2021/12/31 04:50:10;;;;;;;4.38;2.05;;;10.10;99.90;;;;;;5103692;27;20568;-58
2021/12/31 04:52:49;;;;;;;2.50;2.30;;;10.10;99.90;;;;;;5083518;27;20547;-59
2021/12/31 04:55:29;;;;;;;2.20;2.00;;;10.00;99.90;;;;;;5071249;27;21320;-58
2021/12/31 04:58:09;;;;;;;2.70;2.50;;;10.00;99.90;;;;;;5078551;27;20543;-58
2021/12/31 05:00:49;;;;;;;2.35;2.15;;;10.00;99.90;;;;;;5149755;27;20760;-58
2021/12/31 05:03:28;;;;;;;3.03;2.10;;;10.00;99.90;;;;;;5103754;27;20881;-60
2021/12/31 05:06:08;;;;;;;2.65;2.40;;;10.00;99.90;;;;;;5069830;28;21023;-57
2021/12/31 05:08:48;;;;;;;3.40;2.28;;;10.00;99.90;;;;;;5082215;27;21528;-57
2021/12/31 05:11:28;;;;;;;2.67;2.47;;;10.00;99.90;;;;;;5102312;27;21090;-59
2021/12/31 05:14:08;;;;;;;2.45;2.25;;;10.00;99.90;;;;;;5065078;27;20626;-57
2021/12/31 05:16:48;;;;;;;3.22;2.90;;;9.90;99.90;;;;;;5084382;28;20664;-58
2021/12/31 05:19:27;;;;;;;7.78;3.10;;;9.90;99.90;;;;;;5083984;28;21288;-58
2021/12/31 05:22:07;;;;;;;3.03;2.83;;;9.80;99.90;;;;;;5084577;28;20695;-57
2021/12/31 05:24:47;;;;;;;2.92;2.72;;;9.80;99.90;;;;;;5083536;27;20563;-57
2021/12/31 05:27:27;;;;;;;3.42;3.13;;;9.70;99.90;;;;;;5084778;28;20676;-57
2021/12/31 05:30:08;;;;;;;3.70;2.53;;;9.70;99.90;;;;;;5083575;28;20671;-59
2021/12/31 05:32:49;;;;;;;3.17;2.80;;;9.70;99.90;;;;;;5105205;27;20529;-57
2021/12/31 05:35:28;;;;;;;4.22;3.30;;;9.80;99.90;;;;;;5144744;27;20681;-57
2021/12/31 05:38:08;;;;;;;5.22;4.75;;;9.80;99.90;;;;;;5125288;27;20976;-57
2021/12/31 05:40:48;;;;;;;4.55;4.15;;;9.80;99.90;;;;;;5084046;27;21029;-57
2021/12/31 05:43:27;;;;;;;3.70;3.40;;;9.90;99.90;;;;;;5084141;28;20982;-57
2021/12/31 05:46:07;;;;;;;2.10;1.92;;;9.90;99.90;;;;;;5084098;27;20536;-60
2021/12/31 05:48:47;;;;;;;4.57;3.95;;;9.90;99.90;;;;;;5104866;27;20646;-58
2021/12/31 05:51:27;;;;;;;3.25;3.00;;;10.00;99.90;;;;;;5084868;28;20870;-57
2021/12/31 05:54:07;;;;;;;2.88;2.35;;;10.00;99.90;;;;;;5079437;28;20715;-57
2021/12/31 05:56:47;;;;;;;4.93;4.40;;;10.00;99.90;;;;;;5081735;28;21216;-57
2021/12/31 05:59:26;;;;;;;6.22;5.50;;;10.00;99.90;;;;;;5097165;27;20672;-57
2021/12/31 06:02:06;;;;;;;3.95;3.47;;;10.00;99.90;;;;;;5083939;27;20555;-58
2021/12/31 06:04:46;;;;;;;3.35;2.15;;;10.00;99.90;;;;;;5090939;27;20691;-58
2021/12/31 06:07:26;;;;;;;8.20;4.05;;;9.90;99.90;;;;;;5081441;27;20699;-59
2021/12/31 06:10:06;;;;;;;5.45;5.05;;;10.00;99.90;;;;;;5095443;27;21274;-59
2021/12/31 06:12:46;;;;;;;4.13;2.90;;;9.90;99.90;;;;;;5076263;28;20574;-57
2021/12/31 06:15:27;;;;;;;2.75;2.53;;;9.90;99.90;;;;;;5077927;28;20700;-58
2021/12/31 06:18:07;;;;;;;2.45;2.30;;;9.90;99.90;;;;;;5082745;28;21192;-57
2021/12/31 06:20:47;;;;;;;2.35;2.15;;;9.90;99.90;;;;;;5116365;27;20545;-59
2021/12/31 06:23:26;;;;;;;1.95;1.83;;;9.90;99.90;;;;;;5102497;27;21054;-57
2021/12/31 06:26:06;;;;;;;3.30;2.30;;;9.80;99.90;;;;;;5143854;27;20657;-59
2021/12/31 06:28:46;;;;;;;3.17;2.70;;;9.80;99.90;;;;;;5083399;28;20680;-58
2021/12/31 06:31:26;;;;;;;3.35;3.10;;;9.80;99.90;;;;;;5083097;28;21049;-57
2021/12/31 06:34:06;;;;;;;2.50;2.20;;;9.70;99.90;;;;;;5080082;28;20697;-57
2021/12/31 06:36:46;;;;;;;3.33;2.28;;;9.70;99.90;;;;;;5101995;27;20561;-58
2021/12/31 06:39:26;;;;;;;3.90;2.83;;;9.70;99.90;;;;;;5123585;27;20681;-58
2021/12/31 06:42:07;;;;;;;3.45;2.80;;;9.70;99.90;;;;;;5104322;27;20537;-57
2021/12/31 06:44:47;;;;;;;4.68;2.60;;;9.70;99.90;;;;;;5147721;27;20557;-57
2021/12/31 06:47:26;;;;;;;3.60;3.15;;;9.70;99.90;;;;;;5104239;27;20666;-57
2021/12/31 06:50:07;;;;;;;4.28;3.85;;;9.70;99.90;;;;;;5154507;27;20540;-57
2021/12/31 06:52:46;;;;;;;3.97;2.75;;;9.60;99.90;;;;;;5084387;27;20579;-58
2021/12/31 06:55:26;;;;;;;2.85;2.65;;;9.50;99.90;;;;;;5124149;27;21197;-58
2021/12/31 06:58:06;;;;;;;2.53;2.33;;;9.50;99.90;;;;;;5124733;27;20536;-58
2021/12/31 07:00:46;;;;;;;5.93;2.80;;;9.40;99.90;;;;;;5097200;27;20713;-57
2021/12/31 07:03:26;;;;;;;4.53;3.05;;;9.30;99.90;;;;;;5113662;27;20560;-59
2021/12/31 07:06:05;;;;;;;3.95;2.65;;;9.30;99.90;;;;;;5077027;27;20691;-57
2021/12/31 07:08:46;;;;;;;4.15;3.08;;;9.20;99.90;;;;;;5117305;27;21015;-57
2021/12/31 07:11:25;;;;;;;5.07;2.35;;;9.20;99.90;;;;;;5078956;27;20587;-57
2021/12/31 07:14:05;;;;;;;4.55;2.13;;;9.10;99.90;;;;;;5081839;28;20943;-58
2021/12/31 07:16:45;;;;;;;2.90;2.67;;;9.10;99.90;;;;;;5082311;28;20679;-57
2021/12/31 07:19:24;;;;;;;2.30;2.10;;;9.10;99.90;;;;;;5079493;27;20585;-58
2021/12/31 07:22:05;;;;;;;2.30;2.10;;;9.10;99.90;;;;;;5117782;27;20548;-58
2021/12/31 07:24:44;;;;;;;2.67;2.13;;;9.10;99.90;;;;;;5104203;27;20550;-58
2021/12/31 07:27:24;;;;;;;3.55;2.25;;;9.20;99.90;;;;;;5083108;28;20664;-57
2021/12/31 07:30:05;;;;;;;3.83;2.35;;;9.20;99.90;;;;;;5081841;28;20671;-58
2021/12/31 07:32:44;;;;;;;2.30;2.10;;;9.30;99.90;;;;;;5083232;28;20668;-58
2021/12/31 07:35:24;;;;;;;4.55;2.33;;;9.30;99.90;;;;;;5094835;27;21352;-56
2021/12/31 07:38:03;;;;;;;5.15;2.60;;;9.40;99.90;;;;;;5080840;28;20691;-57
2021/12/31 07:40:43;;;;;;;5.15;2.35;;;9.50;99.90;;;;;;5083433;28;20680;-57
2021/12/31 07:43:23;;;;;;;4.00;3.03;;;9.60;99.90;;;;;;5083077;28;20676;-60
2021/12/31 07:46:03;;;;;;;6.40;5.80;;;9.70;99.90;;;;;;5124441;27;21281;-58
2021/12/31 07:48:43;;;;;;;7.43;6.80;;;9.70;99.90;;;;;;5084024;27;21022;-57
2021/12/31 07:51:22;;;;;;;6.60;6.10;;;9.70;99.90;;;;;;5078400;27;21157;-57
2021/12/31 07:54:02;;;;;;;5.18;3.88;;;9.80;99.90;;;;;;5066777;27;20569;-57
2021/12/31 07:56:42;;;;;;;5.20;4.00;;;9.90;99.90;;;;;;5079778;27;20567;-60
2021/12/31 07:59:22;;;;;;;4.78;4.38;;;9.90;99.90;;;;;;5100546;27;21111;-57
2021/12/31 08:02:02;;;;;;;3.95;3.28;;;10.00;99.90;;;;;;5117796;27;21194;-60
2021/12/31 08:04:41;;;;;;;2.50;2.30;;;10.10;99.90;;;;;;5106179;27;20583;-59
2021/12/31 08:07:21;;;;;;;4.40;4.03;;;10.20;99.90;;;;;;5077131;27;20553;-57
2021/12/31 08:10:03;;;;;;;3.20;2.90;;;10.30;99.90;;;;;;5077024;27;20568;-58
2021/12/31 08:12:43;;;;;;;2.05;1.95;;;10.30;99.90;;;;;;5102958;27;20665;-59
2021/12/31 08:15:22;;;;;;;2.38;2.22;;;10.40;99.90;;;;;;5103952;27;20585;-58
2021/12/31 08:18:02;;;;;;;3.30;2.03;;;10.40;99.90;;;;;;5104362;27;20658;-57
2021/12/31 08:20:42;;;;;;;1.90;1.75;;;10.50;99.90;;;;;;5101570;27;20565;-59
2021/12/31 08:23:22;;;;;;;2.55;1.55;;;10.50;99.90;;;;;;5082490;22;20594;-58
2021/12/31 08:26:02;;;;;;;1.40;1.30;;;10.60;99.90;;;;;;5084076;28;20675;-57
2021/12/31 08:28:41;;;;;;;3.05;2.80;;;10.60;99.90;;;;;;5105102;27;20545;-54
2021/12/31 08:31:21;;;;;;;2.03;1.80;;;10.70;99.90;;;;;;5082743;28;20660;-57
2021/12/31 08:34:01;;;;;;;2.90;2.40;;;10.70;99.90;;;;;;5104641;27;20661;-57
2021/12/31 08:36:41;;;;;;;3.35;3.05;;;10.80;99.90;;;;;;5084179;28;20691;-57
2021/12/31 08:39:21;;;;;;;2.33;2.13;;;10.80;99.90;;;;;;5084379;27;20548;-57
2021/12/31 08:42:03;;;;;;;2.20;2.00;;;10.90;99.90;;;;;;5085136;28;20695;-56
2021/12/31 08:44:42;;;;;;;2.88;2.67;;;10.90;99.90;;;;;;5084394;27;20545;-57
2021/12/31 08:47:22;;;;;;;3.20;2.35;;;11.00;99.90;;;;;;5145412;27;20547;-57
2021/12/31 08:50:02;;;;;;;2.35;2.15;;;11.00;99.90;;;;;;5084146;28;21048;-57
2021/12/31 08:52:42;;;;;;;3.72;2.78;;;11.00;99.90;;;;;;5084744;27;21208;-57
2021/12/31 08:55:21;;;;;;;3.38;2.47;;;11.10;99.90;;;;;;5135774;27;20593;-57
2021/12/31 08:58:01;;;;;;;5.32;2.50;;;11.10;99.90;;;;;;5081390;27;20555;-57
2021/12/31 09:00:41;;;;;;;1.05;1.05;;;11.10;99.90;;;;;;5140379;27;20677;-57
2021/12/31 09:03:21;;;;;;;3.88;2.33;;;11.10;99.90;;;;;;5151031;27;20959;-56
2021/12/31 09:06:01;;;;;;;3.50;3.15;;;11.10;99.90;;;;;;5075401;27;20554;-57
2021/12/31 09:08:40;;;;;;;4.03;3.63;;;11.10;99.90;;;;;;5082319;27;21079;-57
2021/12/31 09:11:20;;;;;;;2.17;1.92;;;11.10;99.90;;;;;;5082203;28;20668;-56
2021/12/31 09:14:00;;;;;;;2.83;2.63;;;11.10;99.90;;;;;;5083515;28;20667;-56
2021/12/31 09:16:45;;;;;;;2.40;1.75;;;11.00;99.90;;;;;;5081983;28;20691;-56
2021/12/31 09:19:25;;;;;;;3.28;2.00;;;11.00;99.90;;;;;;5082416;28;21075;-57
2021/12/31 09:22:06;;;;;;;2.88;1.95;;;11.00;99.90;;;;;;5078355;27;20549;-57
2021/12/31 09:24:48;;;;;;;2.00;1.77;;;11.00;99.90;;;;;;5114014;27;21237;-57
2021/12/31 09:27:28;;;;;;;2.60;2.40;;;11.00;99.90;;;;;;5084042;28;20684;-57
2021/12/31 09:30:09;;;;;;;2.83;1.98;;;11.00;99.90;;;;;;5100609;27;20669;-57
2021/12/31 09:32:49;;;;;;;1.92;1.67;;;11.10;99.90;;;;;;5079682;28;20683;-57
2021/12/31 09:35:29;;;;;;;6.60;2.47;;;11.00;99.90;;;;;;5083023;27;20544;-57
2021/12/31 09:38:09;;;;;;;4.50;2.55;;;11.00;99.90;;;;;;5084315;28;20683;-57
2021/12/31 09:40:49;;;;;;;7.25;2.50;;;11.10;99.90;;;;;;5082528;28;20683;-57
2021/12/31 09:43:28;;;;;;;2.55;2.28;;;11.10;99.90;;;;;;5118091;27;21110;-57
2021/12/31 09:46:08;;;;;;;2.08;1.80;;;11.20;99.90;;;;;;5082160;28;20536;-57
2021/12/31 09:48:48;;;;;;;3.10;2.88;;;11.30;99.90;;;;;;5083517;28;20675;-57
2021/12/31 09:51:29;;;;;;;2.38;1.88;;;11.40;99.90;;;;;;5082601;27;20543;-57
2021/12/31 09:54:09;;;;;;;4.55;3.88;;;11.40;99.90;;;;;;5082809;28;20660;-57
2021/12/31 09:56:50;;;;;;;3.00;2.58;;;11.60;99.90;;;;;;5080293;27;20563;-57
2021/12/31 09:59:28;;;;;;;3.60;3.30;;;11.70;99.90;;;;;;5083754;28;20550;-57
2021/12/31 10:02:09;;;;;;;3.42;2.72;;;11.80;99.90;;;;;;5084011;28;20588;-57
2021/12/31 10:04:54;;;;;;;1.83;1.73;;;12.00;99.90;;;;;;5083090;27;20551;-57
2021/12/31 10:07:34;;;;;;;2.35;2.03;;;12.20;99.90;;;;;;5132286;27;20567;-58
2021/12/31 10:10:16;;;;;;;2.30;2.10;;;12.40;99.90;;;;;;5082722;27;20567;-57
2021/12/31 10:12:57;;;;;;;9.57;2.42;;;12.50;99.90;;;;;;5104307;27;20546;-57
2021/12/31 10:15:39;;;;;;;1.80;1.70;;;12.60;99.90;;;;;;5104564;27;20662;-58
2021/12/31 10:18:19;;;;;;;1.63;1.52;;;12.80;99.90;;;;;;5084408;28;20575;-57
2021/12/31 10:20:59;;;;;;;5.78;2.78;;;12.90;99.90;;;;;;5104017;27;20674;-57
2021/12/31 10:23:40;;;;;;;1.52;1.42;;;12.90;99.90;;;;;;5144873;27;21162;-57
2021/12/31 10:26:19;;;;;;;1.08;0.98;;;12.90;99.90;;;;;;5103497;27;20673;-57
2021/12/31 10:29:00;;;;;;;1.77;1.30;;;13.00;99.90;;;;;;5103661;27;20573;-57
2021/12/31 10:31:44;;;;;;;2.80;1.08;;;13.00;99.90;;;;;;5082507;28;20679;-58
2021/12/31 10:34:29;;;;;;;1.20;1.17;;;13.00;99.90;;;;;;5084051;27;21087;-57
2021/12/31 10:37:17;;;;;;;1.05;1.05;;;13.10;99.90;;;;;;5096888;27;20593;-57
2021/12/31 10:39:58;;;;;;;1.98;1.77;;;13.20;99.90;;;;;;5125456;27;21102;-57
2021/12/31 10:42:38;;;;;;;1.25;1.15;;;13.30;99.90;;;;;;5084321;28;21195;-58
2021/12/31 10:45:17;;;;;;;4.90;4.50;;;13.20;99.90;;;;;;5083260;27;20454;-57
2021/12/31 10:48:05;;;;;;;1.13;1.02;;;13.20;99.90;;;;;;5146284;27;20538;-57
2021/12/31 10:50:52;;;;;;;1.10;1.10;;;13.10;99.90;;;;;;5144672;27;20665;-57
2021/12/31 10:53:34;;;;;;;1.23;1.10;;;12.90;99.90;;;;;;5145759;27;20550;-57
2021/12/31 10:56:15;;;;;;;1.95;1.75;;;12.60;99.90;;;;;;5145279;27;20924;-57
2021/12/31 10:58:59;;;;;;;3.30;2.80;;;12.10;99.90;;;;;;5102343;27;20538;-57
2021/12/31 11:01:41;;;;;;;1.73;0.95;;;11.60;99.90;;;;;;5102354;27;20822;-56
2021/12/31 11:04:21;;;;;;;1.48;1.38;;;11.20;99.90;;;;;;5081664;27;21141;-56
2021/12/31 11:07:02;;;;;;;3.78;1.75;;;11.00;99.90;;;;;;5084421;28;21059;-56
2021/12/31 11:09:43;;;;;;;2.33;1.85;;;10.90;99.90;;;;;;5083927;28;21189;-56
2021/12/31 11:12:21;;;;;;;1.10;1.00;;;10.80;99.90;;;;;;5084734;28;20703;-56
2021/12/31 11:15:02;;;;;;;0.90;0.90;;;10.80;99.90;;;;;;5083886;27;20539;-56
2021/12/31 11:17:41;;;;;;;1.08;1.00;;;10.90;99.90;;;;;;5082223;28;20699;-57
2021/12/31 11:20:24;;;;;;;1.58;1.48;;;11.10;99.90;;;;;;5084344;27;20575;-56
2021/12/31 11:23:04;;;;;;;2.08;1.88;;;11.20;99.90;;;;;;5084530;27;20585;-56
2021/12/31 11:25:53;;;;;;;2.10;2.00;;;11.20;99.90;;;;;;5083814;28;21032;-56
2021/12/31 11:28:33;;;;;;;2.05;1.85;;;11.40;99.90;;;;;;5084502;28;21079;-56
2021/12/31 11:31:27;;;;;;;2.20;2.00;;;11.40;99.90;;;;;;5146090;27;20665;-56
2021/12/31 11:34:16;;;;;;;1.75;1.52;;;11.40;99.90;;;;;;5084422;28;20675;-56
2021/12/31 11:36:56;;;;;;;1.20;1.05;;;11.50;99.90;;;;;;5084373;28;20570;-57
2021/12/31 11:39:38;;;;;;;1.50;1.40;;;11.50;99.90;;;;;;5104164;27;20911;-56
2021/12/31 11:42:18;;;;;;;1.60;1.38;;;11.60;99.90;;;;;;5083933;27;20547;-56
2021/12/31 11:45:09;;;;;;;1.50;1.40;;;11.60;99.90;;;;;;5084055;28;20667;-56
2021/12/31 11:47:49;;;;;;;1.70;1.60;;;11.60;99.90;;;;;;5084716;27;20993;-56
2021/12/31 11:50:31;;;;;;;2.63;2.42;;;11.60;99.90;;;;;;5084870;28;20676;-56
2021/12/31 11:53:11;;;;;;;1.23;1.13;;;11.60;99.90;;;;;;5105554;27;20572;-56
2021/12/31 11:55:51;;;;;;;1.05;0.95;;;11.50;99.90;;;;;;5104751;27;20952;-56
2021/12/31 11:58:41;;;;;;;2.25;0.70;;;11.50;99.90;;;;;;5104998;27;20577;-57
2021/12/31 12:01:43;;;;;;;1.00;1.00;;;11.40;99.90;;;;;;5146427;27;20657;-57
2021/12/31 12:04:24;;;;;;;1.42;1.25;;;11.40;99.90;;;;;;5103870;27;20673;-56
2021/12/31 12:07:06;;;;;;;2.05;1.27;;;11.40;99.90;;;;;;5146342;27;20677;-56
2021/12/31 12:10:15;;;;;;;2.00;1.45;;;11.60;99.90;;;;;;5104599;27;20969;-56
2021/12/31 12:13:18;;;;;;;1.60;1.30;;;11.80;99.90;;;;;;5101197;27;21069;-56
2021/12/31 12:15:58;;;;;;;1.40;1.20;;;11.90;99.90;;;;;;5076869;28;20681;-56
2021/12/31 12:18:55;;;;;;;1.80;1.70;;;12.00;99.90;;;;;;5081101;28;20599;-56
2021/12/31 12:21:38;;;;;;;1.58;1.48;;;12.10;99.90;;;;;;5082075;28;20686;-56
2021/12/31 12:24:24;;;;;;;1.17;1.08;;;12.10;99.90;;;;;;5082958;28;20680;-57
2021/12/31 12:27:04;;;;;;;3.03;1.20;;;12.10;99.90;;;;;;5105358;27;20558;-56
2021/12/31 12:29:44;;;;;;;1.48;1.17;;;12.10;99.90;;;;;;5146070;27;20937;-57
2021/12/31 12:32:32;;;;;;;2.13;1.10;;;12.20;99.90;;;;;;5084982;27;20563;-56
2021/12/31 12:35:18;;;;;;;1.90;1.08;;;12.20;99.90;;;;;;5124528;27;21021;-56
2021/12/31 12:38:00;;;;;;;1.75;1.17;;;12.20;99.90;;;;;;5084786;27;20539;-56
2021/12/31 12:40:42;;;;;;;1.63;1.23;;;12.10;99.90;;;;;;5084165;27;20536;-56
2021/12/31 12:43:23;;;;;;;1.23;0.95;;;12.00;99.90;;;;;;5146105;27;20551;-56
2021/12/31 12:46:05;;;;;;;1.05;0.98;;;11.90;99.90;;;;;;5145275;27;20646;-57
2021/12/31 12:48:49;;;;;;;1.88;1.60;;;11.80;99.90;;;;;;5145758;27;20661;-56
2021/12/31 12:51:30;;;;;;;2.08;1.35;;;11.80;99.90;;;;;;5104910;27;20666;-56
2021/12/31 12:54:13;;;;;;;1.85;1.15;;;11.90;99.90;;;;;;5125087;27;20655;-56
2021/12/31 12:56:53;;;;;;;1.60;0.95;;;12.00;99.90;;;;;;5146429;27;20526;-56
2021/12/31 12:59:37;;;;;;;1.00;1.00;;;12.00;99.90;;;;;;5145650;27;20538;-57
2021/12/31 13:02:16;;;;;;;1.55;1.45;;;12.00;99.90;;;;;;5084874;27;20548;-56
2021/12/31 13:05:06;;;;;;;1.70;1.60;;;12.20;99.90;;;;;;5083874;28;20676;-56
2021/12/31 13:07:52;;;;;;;1.80;1.67;;;12.50;99.90;;;;;;5084839;28;21014;-56
2021/12/31 13:10:33;;;;;;;2.25;1.52;;;12.70;99.90;;;;;;5125101;27;20565;-56
2021/12/31 13:13:16;;;;;;;1.45;1.35;;;12.70;99.90;;;;;;5084594;28;20569;-56
2021/12/31 13:15:56;;;;;;;1.85;1.70;;;12.90;99.90;;;;;;5084112;28;20656;-56
2021/12/31 13:18:37;;;;;;;1.63;1.30;;;13.00;99.90;;;;;;5146063;27;20661;-57
2021/12/31 13:21:16;;;;;;;2.03;1.20;;;13.00;99.90;;;;;;5084741;28;20668;-56
2021/12/31 13:23:57;;;;;;;1.20;1.13;;;13.00;99.90;;;;;;5146068;27;20673;-56
2021/12/31 13:26:37;;;;;;;1.90;1.80;;;12.90;99.90;;;;;;5084778;28;20659;-56
2021/12/31 13:29:17;;;;;;;1.52;1.42;;;12.90;99.90;;;;;;5145785;27;20657;-56
2021/12/31 13:32:05;;;;;;;1.42;1.17;;;13.00;99.90;;;;;;5126195;27;20552;-56
2021/12/31 13:34:46;;;;;;;1.73;1.60;;;12.90;99.90;;;;;;5084618;28;20660;-56
2021/12/31 13:37:28;;;;;;;1.25;1.10;;;12.90;99.90;;;;;;5095810;27;20697;-56
2021/12/31 13:40:10;;;;;;;1.52;1.50;;;12.80;99.90;;;;;;5063571;27;20591;-57
2021/12/31 13:43:02;;;;;;;4.22;1.88;;;12.70;99.90;;;;;;5145441;27;21207;-56
2021/12/31 13:45:44;;;;;;;1.70;1.35;;;12.50;99.90;;;;;;5083717;27;20561;-56
2021/12/31 13:48:31;;;;;;;1.00;0.90;;;12.40;99.90;;;;;;5073692;27;20593;-57
2021/12/31 13:51:27;;;;;;;1.83;1.10;;;12.20;99.90;;;;;;5068101;28;20866;-56
2021/12/31 13:54:08;;;;;;;2.20;1.45;;;12.20;99.90;;;;;;5080334;27;21285;-56
2021/12/31 13:56:49;;;;;;;2.25;1.98;;;12.10;99.90;;;;;;5079723;28;20948;-56
2021/12/31 13:59:37;;;;;;;1.65;1.55;;;12.10;99.90;;;;;;5069236;27;20757;-57
2021/12/31 14:02:22;;;;;;;1.30;1.20;;;12.20;99.90;;;;;;5109112;27;20755;-56